Palmdale Regional,USAF Plant 42 Airport Palmdale US
ICAO: KPMD
IATA: PMD
Category: Medium
Scheduled Services: Yes

Elevation: 2543 ft
TransAlt. 18000 ft.

Airport Communications:
JOSHUA APP/DEP:124.55
ASOS:118.275
CTAF:123.7
GND:121.9
TWR:123.7

KPMD Zoom In..

Runways:

(A) RW 04 length 12001 ft width 150 ft
---- / hdg 37

(B) RW 07 length 12002 ft width 200 ft
---- / hdg 71

(C) RW 22 length 12001 ft width 150 ft
---- / hdg 217

(D) RW 25 length 12002 ft width 200 ft
ILS 110.70 / hdg 251

Location; KPMD
Day. 16 / Time. 00.53 Zulu
* Altimeter: 29.89
* Temperature: 32° c. 89.6°f.
* Wind from: 220° Speed 16 kn with Gusts up to 24 kn.
Dewpoint: 04° c.
Visibility: 10 Statute Miles.
Clouds: Clear (automated report).

KPMD 160053Z AUTO 22016G24KT 10SM CLR 32/04 A2989 RMK AO2 SLP088 T03220044

Going to: --> -->


Wind From 220°
Speed 16 kn.

 
 
jpsmedia worldairports.se 2020   terms of use